Airfield :
LOGIN :

Register | Disclaimer

   EN    FR    IT 

 










Legend :    VFR   Marginal VFR   IFR   Intensive IFR   Very Intensive IFR
Visi :
Ceiling :
>= 8 km
>= 3000ft
5 to 8 km
1000 to 3000 ft
1500m to 5 km
500 to 1000 ft
800 to 1500m
200 to 500 ft
< 800m
< 200 ft
Symbols :   Thunderstorms  Fog  Heavy snow  Heavy precipitations  Wind > 20 kt
SIGMETs :     Misc.  Thunderstorms  Icing  Turbulence  Mountain Waves  Volcanic Ashes







- Airport Elevation : -15 ft
- IATA code : RTM


EHRD - Rotterdam Zestienhoven

CURRENT METAR :
  • 181555Z AUTO 27008KT 230V320 9999 FEW026 05/02 Q1001 NOSIG

EXPIRED METARs :
  • 181525Z AUTO 28010KT 240V310 9999 NCD 05/01 Q1001 NOSIG
  • 181455Z AUTO 27011KT 240V320 9999 FEW023 05/02 Q1000 NOSIG
  • 181425Z AUTO 28014G26KT 240V320 9999 SCT021 BKN026 OVC030 06/02 Q1000 NOSIG
  • 181355Z AUTO 28016KT 240V320 9999 SCT019 BKN022 OVC027 06/02 Q1000 NOSIG
  • 181325Z AUTO 28017KT 240V310 9999 FEW018 BKN024 OVC027 05/03 Q0999 NOSIG
  • 181255Z AUTO 28016KT 250V310 9999 FEW020 BKN024 OVC027 05/02 Q0999 NOSIG

TAF TAF EHRD
Valid from the 18 at 12:00 until the 19 at 18:00 UTC


181117Z 1812/1918 29029G43KT 9999 SCT020 BKN035
BECMG 1812/1815 28020G30KT
TEMPO 1812/1815 7000 -SHRA FEW018CB BKN025
BECMG 1815/1818 28012KT
TEMPO 1815/1906 28020G30KT 6000 SHRA SHRAGS SCT015CB BKN020
BECMG 1906/1909 25012KT
PROB30
TEMPO 1906/1912 7000 -SHRA FEW020CB
TEMPO 1912/1918 27020G30KT 6000 SHRA SHRAGS SCT015CB BKN020
No reported NOTAMs for that airfield.



MET'MAP, your aeronautical weather chart ! - Copyright ORBIFLY December 2007 - Disclaimer

ORBIFLY MET'MAP TEAM :

Programming & Development : Alexandra Zaïnal
Concept & Development : Baudouin d'Aumeries
Co-Development & Prog : Marc-Olivier Méhu
Technical & hardware support : Manuel Goepfert

Contact : metmap@orbifly.com




SOURCES & CREDITS :

   NOAA